createdAt,value
2018-04-20T12:21:32.489Z,98647.96
2018-04-20T12:22:35.528Z,98645.53
2018-04-20T12:39:18.721Z,98633.00
2018-04-20T12:40:23.480Z,98629.89
2018-04-20T12:41:43.977Z,98623.11
2018-04-20T12:42:47.626Z,98627.36
2018-04-20T12:43:53.307Z,98625.58
2018-04-20T12:44:57.042Z,98620.91
2018-04-20T12:47:14.064Z,98619.38
2018-04-20T12:48:16.868Z,98623.61
2018-04-20T12:49:19.664Z,98622.91
2018-04-20T12:50:22.528Z,98621.28
2018-04-20T12:51:26.306Z,98611.03
2018-04-20T12:52:29.687Z,98622.23
2018-04-20T12:53:34.247Z,98618.94
2018-04-20T12:54:37.012Z,98617.01
2018-04-20T12:55:40.073Z,98615.21
2018-04-20T12:56:45.803Z,98608.34
2018-04-20T12:57:48.700Z,98614.11
2018-04-20T12:58:52.831Z,98617.75
2018-04-20T12:59:56.448Z,98616.61
2018-04-20T13:00:59.399Z,98610.91
2018-04-20T13:02:02.178Z,98623.36
2018-04-20T13:03:06.533Z,98608.47
2018-04-20T13:04:10.621Z,98612.81
2018-04-20T13:05:13.869Z,98612.16
2018-04-20T13:06:17.075Z,98600.48
2018-04-20T13:07:19.873Z,98611.75
2018-04-20T13:08:23.286Z,98599.28
2018-04-20T13:09:26.094Z,98616.17
2018-04-20T13:10:28.929Z,98603.63
2018-04-20T13:11:31.714Z,98611.39
2018-04-20T13:12:36.043Z,98599.94
2018-04-20T13:13:38.854Z,98603.35
2018-04-20T13:14:42.514Z,98599.25
2018-04-20T13:15:45.325Z,98592.03
2018-04-20T13:16:48.185Z,98604.08
2018-04-20T13:17:55.039Z,98606.09
2018-04-20T13:18:58.197Z,98597.97
2018-04-20T13:20:00.998Z,98586.60
2018-04-20T13:21:03.803Z,98593.92
2018-04-20T13:22:07.976Z,98594.79
2018-04-20T13:23:10.740Z,98593.77
2018-04-20T13:24:14.535Z,98585.71
2018-04-20T13:25:19.052Z,98588.97
2018-04-20T13:26:21.883Z,98588.09
2018-04-20T13:27:24.861Z,98586.36
2018-04-20T13:28:28.686Z,98583.80
2018-04-20T13:29:32.316Z,98583.16
2018-04-20T13:30:35.253Z,98586.05
2018-04-20T13:31:41.690Z,98576.45
2018-04-20T13:32:46.706Z,98571.70
2018-04-20T13:33:49.756Z,98571.79
2018-04-20T13:34:52.565Z,98571.81
2018-04-20T13:35:55.797Z,98574.00
2018-04-20T13:36:59.083Z,98568.51
2018-04-20T13:38:03.074Z,98575.53
2018-04-20T13:39:06.130Z,98570.50
2018-04-20T13:40:09.327Z,98574.67
2018-04-20T13:41:12.399Z,98570.11
2018-04-20T13:42:15.757Z,98565.33
2018-04-20T13:43:21.374Z,98571.00
2018-04-20T13:44:25.117Z,98564.27
2018-04-20T13:45:28.963Z,98560.55
2018-04-20T13:46:31.778Z,98559.99
2018-04-20T13:47:34.499Z,98560.98
2018-04-20T13:48:37.843Z,98564.67
2018-04-20T13:49:41.579Z,98564.50
2018-04-20T13:50:45.831Z,98565.00
2018-04-20T13:51:50.879Z,98566.77
2018-04-20T13:53:57.802Z,98562.45
2018-04-20T13:55:00.851Z,98555.41
2018-04-20T13:56:03.642Z,98556.36
2018-04-20T13:57:09.710Z,98552.77
2018-04-20T13:58:14.029Z,98560.27
2018-04-20T13:59:17.234Z,98553.84
2018-04-20T14:00:20.521Z,98553.63
2018-04-20T14:01:24.655Z,98549.77
2018-04-20T14:02:27.579Z,98555.44
2018-04-20T14:03:33.048Z,98549.53
2018-04-20T14:04:36.046Z,98547.90
2018-04-20T14:05:38.873Z,98543.33
2018-04-20T14:06:42.046Z,98541.52
2018-04-20T14:07:45.053Z,98543.30
2018-04-20T14:08:48.130Z,98536.13
2018-04-20T14:09:51.816Z,98534.95
2018-04-20T14:10:54.968Z,98543.59
2018-04-20T14:11:58.013Z,98528.33
2018-04-20T14:13:01.738Z,98534.33
2018-04-20T14:14:05.076Z,98536.70
2018-04-20T14:15:08.175Z,98529.17
2018-04-20T14:16:11.679Z,98528.89
2018-04-20T14:17:14.552Z,98517.24
2018-04-20T14:18:18.963Z,98527.19
2018-04-20T14:19:22.353Z,98525.62
2018-04-20T14:20:25.713Z,98521.25
2018-04-20T14:21:29.242Z,98525.97
2018-04-20T14:22:32.333Z,98524.28
2018-04-20T14:23:35.136Z,98520.86
2018-04-20T14:24:37.956Z,98520.54
2018-04-20T14:25:41.882Z,98521.98
2018-04-20T14:26:44.710Z,98524.67
2018-04-20T14:27:47.918Z,98531.59
2018-04-20T14:28:51.170Z,98529.08
2018-04-20T14:29:54.955Z,98522.53
2018-04-20T14:30:57.881Z,98523.55
2018-04-20T14:32:01.267Z,98513.84
2018-04-20T14:33:05.015Z,98516.91
2018-04-20T14:34:08.758Z,98508.70
2018-04-20T14:35:11.827Z,98510.28
2018-04-20T14:36:14.668Z,98513.55
2018-04-20T14:37:17.869Z,98511.52
2018-04-20T14:38:21.002Z,98509.58
2018-04-20T14:39:23.925Z,98509.67
2018-04-20T14:40:26.747Z,98504.37
2018-04-20T14:41:30.865Z,98511.98
2018-04-20T14:42:33.836Z,98506.72
2018-04-20T14:43:37.148Z,98510.66
2018-04-20T14:44:40.271Z,98507.50
2018-04-20T14:45:43.067Z,98505.70
2018-04-20T14:46:45.882Z,98504.89
2018-04-20T14:47:49.126Z,98509.16
2018-04-20T14:48:52.213Z,98514.92
2018-04-20T14:49:55.056Z,98505.20
2018-04-20T14:50:57.809Z,98512.08
2018-04-20T14:52:00.528Z,98510.28
2018-04-20T14:53:03.320Z,98503.59
2018-04-20T14:54:06.208Z,98509.88
2018-04-20T14:55:09.609Z,98509.72
2018-04-20T14:56:12.755Z,98505.10
2018-04-20T14:57:16.090Z,98500.00
2018-04-20T14:58:19.129Z,98498.69
2018-04-20T14:59:22.294Z,98506.12
2018-04-20T15:00:26.513Z,98495.16
2018-04-20T15:01:29.588Z,98498.20
2018-04-20T15:02:32.985Z,98498.91
2018-04-20T15:03:36.335Z,98497.18
2018-04-20T15:04:39.744Z,98494.63
2018-04-20T15:05:42.888Z,98495.39
2018-04-20T15:06:46.429Z,98499.78
2018-04-20T15:07:49.794Z,98501.41
2018-04-20T15:08:53.346Z,98495.05
2018-04-20T15:09:56.087Z,98492.11
2018-04-20T15:10:58.866Z,98488.73
2018-04-20T15:12:03.036Z,98486.49
2018-04-20T15:13:05.738Z,98495.14
2018-04-20T15:14:08.457Z,98493.58
2018-04-20T15:15:11.212Z,98483.84
2018-04-20T15:16:15.237Z,98495.76
2018-04-20T15:17:18.000Z,98490.91
2018-04-20T15:18:21.171Z,98489.33
2018-04-20T15:19:23.963Z,98495.29
2018-04-20T15:20:26.773Z,98492.33
2018-04-20T15:21:29.986Z,98494.69
2018-04-20T15:22:32.752Z,98484.69
2018-04-20T15:23:35.523Z,98484.63
2018-04-20T15:24:38.617Z,98492.17
2018-04-20T15:25:41.291Z,98489.64
2018-04-20T15:26:44.077Z,98491.13
2018-04-20T15:27:46.899Z,98488.01
2018-04-20T15:28:49.693Z,98483.78
2018-04-20T15:29:52.505Z,98484.96
2018-04-20T15:30:56.127Z,98482.97
2018-04-20T15:31:59.255Z,98482.36
2018-04-20T15:33:02.126Z,98480.14
2018-04-20T15:34:04.994Z,98492.55
2018-04-20T15:35:07.733Z,98486.73
2018-04-20T15:36:10.503Z,98483.61
2018-04-20T15:37:13.719Z,98482.92
2018-04-20T15:38:16.601Z,98481.16
2018-04-20T15:39:19.446Z,98481.34
2018-04-20T15:40:22.288Z,98477.70
2018-04-20T15:41:25.074Z,98472.61
2018-04-20T15:42:27.845Z,98475.05
2018-04-20T15:43:30.792Z,98466.20
2018-04-20T15:44:33.473Z,98464.61
2018-04-20T15:45:36.799Z,98476.77
2018-04-20T15:46:39.576Z,98472.10
2018-04-20T15:47:42.363Z,98469.78
2018-04-20T15:48:45.274Z,98467.70
2018-04-20T15:49:48.425Z,98468.73
2018-04-20T15:50:51.583Z,98475.78
2018-04-20T15:51:54.584Z,98475.16
2018-04-20T15:52:57.286Z,98469.69
2018-04-20T15:54:00.019Z,98468.46
2018-04-20T15:55:02.780Z,98460.48
2018-04-20T15:56:05.800Z,98466.20
2018-04-20T15:57:08.628Z,98463.31
2018-04-20T15:58:11.538Z,98459.02
2018-04-20T15:59:14.353Z,98459.97
2018-04-20T16:00:17.079Z,98459.95
2018-04-20T16:01:20.221Z,98461.48
2018-04-20T16:02:23.436Z,98459.69
2018-04-20T16:03:26.480Z,98458.02
2018-04-20T16:04:29.666Z,98457.96
2018-04-20T16:05:32.736Z,98457.33
2018-04-20T16:06:35.972Z,98454.96
2018-04-20T16:07:39.009Z,98454.47
2018-04-20T16:08:42.270Z,98454.13
2018-04-20T16:09:45.211Z,98457.28
2018-04-20T16:10:48.038Z,98456.19
2018-04-20T16:11:51.015Z,98460.80
2018-04-20T16:12:53.795Z,98457.00
2018-04-20T16:13:56.863Z,98457.05
2018-04-20T16:15:00.131Z,98456.25
2018-04-20T16:16:03.088Z,98452.91
2018-04-20T16:17:06.744Z,98445.64
2018-04-20T16:18:09.789Z,98449.00
2018-04-20T16:19:12.767Z,98450.98
2018-04-20T16:20:15.603Z,98450.25
2018-04-20T16:21:18.747Z,98454.03
2018-04-20T16:22:21.708Z,98446.66
2018-04-20T16:23:24.964Z,98446.91
2018-04-20T16:24:27.750Z,98452.64
2018-04-20T16:25:30.580Z,98446.55
2018-04-20T16:26:33.667Z,98451.27
2018-04-20T16:27:37.522Z,98453.87
2018-04-20T16:28:40.339Z,98448.77
2018-04-20T16:29:43.273Z,98450.20
2018-04-20T16:30:47.777Z,98455.95
2018-04-20T16:31:50.666Z,98451.55
2018-04-20T16:32:53.496Z,98456.19
2018-04-20T16:33:56.581Z,98452.27
2018-04-20T16:34:59.379Z,98451.00
2018-04-20T16:36:02.206Z,98449.37
2018-04-20T16:37:05.194Z,98443.78
2018-04-20T16:38:09.755Z,98449.34
2018-04-20T16:39:12.734Z,98446.02
2018-04-20T16:40:16.265Z,98441.16
2018-04-20T16:41:19.091Z,98440.32
2018-04-20T16:42:22.030Z,98439.47
2018-04-20T16:43:24.890Z,98437.60
2018-04-20T16:44:28.997Z,98443.83
2018-04-20T16:45:33.198Z,98437.12
2018-04-20T16:46:38.659Z,98439.36
2018-04-20T16:47:41.477Z,98437.97
2018-04-20T16:48:44.431Z,98444.16
2018-04-20T16:49:47.312Z,98437.33
2018-04-20T16:50:50.330Z,98432.55
2018-04-20T16:51:53.181Z,98432.94
2018-04-20T16:52:56.567Z,98432.59
2018-04-20T16:54:00.192Z,98434.09
2018-04-20T16:55:03.071Z,98425.53
2018-04-20T16:56:06.088Z,98435.23
2018-04-20T16:57:09.228Z,98427.69
2018-04-20T16:58:12.609Z,98431.52
2018-04-20T16:59:16.486Z,98422.83
2018-04-20T17:00:19.482Z,98427.26
2018-04-20T17:01:23.465Z,98430.83
2018-04-20T17:02:26.387Z,98425.95
2018-04-20T17:03:29.186Z,98421.30
2018-04-20T17:04:32.095Z,98422.70
2018-04-20T17:05:35.246Z,98416.48
2018-04-20T17:06:38.068Z,98422.64
2018-04-20T17:07:42.188Z,98428.22
2018-04-20T17:08:44.993Z,98418.05
2018-04-20T17:09:47.748Z,98425.91
2018-04-20T17:10:50.691Z,98421.27
2018-04-20T17:11:53.913Z,98422.00
2018-04-20T17:12:56.905Z,98428.02
2018-04-20T17:13:59.760Z,98426.06
2018-04-20T17:15:04.142Z,98419.52
2018-04-20T17:16:07.171Z,98428.89
2018-04-20T17:17:10.205Z,98417.20
2018-04-20T17:18:13.327Z,98423.47
2018-04-20T17:19:16.730Z,98419.30
2018-04-20T17:20:19.888Z,98422.76
2018-04-20T17:21:22.722Z,98415.50
2018-04-20T17:22:25.551Z,98424.52
2018-04-20T17:23:28.439Z,98416.28
2018-04-20T17:24:31.718Z,98417.73
2018-04-20T17:25:34.559Z,98417.06
2018-04-20T17:26:37.356Z,98416.50
2018-04-20T17:27:40.300Z,98417.75
2018-04-20T17:28:43.145Z,98419.23
2018-04-20T17:29:45.999Z,98416.89
2018-04-20T17:30:49.171Z,98412.44
2018-04-20T17:31:51.968Z,98414.09
2018-04-20T17:32:54.810Z,98413.13
2018-04-20T17:33:57.693Z,98410.77
2018-04-20T17:35:00.863Z,98413.88
2018-04-20T17:36:04.951Z,98417.08
2018-04-20T17:37:08.336Z,98402.53
2018-04-20T17:38:11.578Z,98416.52
2018-04-20T17:39:14.690Z,98409.45
2018-04-20T17:40:17.520Z,98414.45
2018-04-20T17:41:20.794Z,98412.66
2018-04-20T17:42:23.856Z,98413.92
2018-04-20T17:43:27.335Z,98408.94
2018-04-20T17:44:30.197Z,98410.48
2018-04-20T17:45:33.225Z,98410.02
2018-04-20T17:46:36.076Z,98410.66
2018-04-20T17:47:38.903Z,98404.87
2018-04-20T17:48:43.118Z,98404.84
2018-04-20T17:49:46.979Z,98404.38
2018-04-20T17:50:50.848Z,98410.02
2018-04-20T17:51:53.940Z,98410.98
2018-04-20T17:52:56.780Z,98411.39
2018-04-20T17:53:59.657Z,98414.28
2018-04-20T17:55:02.641Z,98406.33
2018-04-20T17:56:06.873Z,98409.61
2018-04-20T17:57:09.964Z,98411.59
2018-04-20T17:58:13.543Z,98408.99
2018-04-20T17:59:16.480Z,98413.61
2018-04-20T18:00:19.545Z,98406.74
2018-04-20T18:01:22.405Z,98405.40
2018-04-20T18:02:25.765Z,98414.84
2018-04-20T18:03:28.885Z,98410.89
2018-04-20T18:04:32.519Z,98413.26
2018-04-20T18:05:35.359Z,98415.30
2018-04-20T18:06:38.383Z,98412.20
2018-04-20T18:07:41.962Z,98414.78
2018-04-20T18:08:46.950Z,98411.01
2018-04-20T18:09:49.863Z,98415.92
2018-04-20T18:10:54.568Z,98415.69
2018-04-20T18:11:57.488Z,98420.07
2018-04-20T18:13:00.928Z,98418.55
2018-04-20T18:14:04.090Z,98410.39
2018-04-20T18:15:07.558Z,98416.66
2018-04-20T18:16:10.962Z,98419.52
2018-04-20T18:17:13.854Z,98413.58
2018-04-20T18:18:17.510Z,98412.29
2018-04-20T18:19:20.603Z,98420.63
2018-04-20T18:20:23.837Z,98419.28
2018-04-20T18:22:32.732Z,98426.16
2018-04-20T18:23:37.050Z,98422.50
2018-04-20T18:24:40.026Z,98424.48
2018-04-20T18:25:42.907Z,98421.51
2018-04-20T18:26:46.212Z,98421.09
2018-04-20T18:27:50.070Z,98421.30
2018-04-20T18:28:53.871Z,98421.27
2018-04-20T18:29:58.688Z,98421.77
2018-04-20T18:31:02.886Z,98418.09
2018-04-20T18:32:05.837Z,98420.28
2018-04-20T18:33:09.853Z,98424.42
2018-04-20T18:34:13.910Z,98424.19
2018-04-20T18:35:17.282Z,98425.80
2018-04-20T18:36:20.152Z,98417.11
2018-04-20T18:37:23.562Z,98421.84
2018-04-20T18:38:26.387Z,98420.84
2018-04-20T18:40:43.600Z,98420.52
2018-04-20T18:41:46.921Z,98431.19
2018-04-20T18:42:50.988Z,98427.17
2018-04-20T18:43:54.050Z,98426.91
2018-04-20T18:44:57.164Z,98425.80
2018-04-20T18:47:14.529Z,98437.27
2018-04-20T18:48:18.535Z,98437.06
2018-04-20T18:49:21.886Z,98442.81
2018-04-20T18:50:24.807Z,98441.08
2018-04-20T18:51:28.160Z,98434.62
2018-04-20T18:52:31.888Z,98439.34
2018-04-20T18:53:34.779Z,98442.92
2018-04-20T18:54:38.225Z,98444.61
2018-04-20T18:55:42.369Z,98443.39
2018-04-20T18:56:45.768Z,98447.61
2018-04-20T18:57:48.937Z,98442.52
2018-04-20T18:58:53.704Z,98452.89
2018-04-20T18:59:59.655Z,98450.11
2018-04-20T19:01:03.486Z,98456.59
2018-04-20T19:02:06.591Z,98456.86
2018-04-20T19:03:10.697Z,98448.60
2018-04-20T19:04:15.037Z,98454.09
2018-04-20T19:05:20.209Z,98456.63
2018-04-20T19:06:24.218Z,98454.97
2018-04-20T19:07:28.117Z,98454.33
2018-04-20T19:08:31.374Z,98450.41
2018-04-20T19:09:35.278Z,98451.97
2018-04-20T19:10:40.345Z,98456.48
2018-04-20T19:11:45.834Z,98452.39
2018-04-20T19:12:49.328Z,98456.82
2018-04-20T19:13:53.100Z,98453.37
2018-04-20T19:14:58.249Z,98453.06
2018-04-20T19:16:01.994Z,98455.38
2018-04-20T19:17:05.118Z,98458.23
2018-04-20T19:18:11.408Z,98454.93
2018-04-20T19:19:15.976Z,98455.32
2018-04-20T19:20:20.221Z,98454.05
2018-04-20T19:21:25.043Z,98453.67
2018-04-20T19:27:24.110Z,98461.09
2018-04-20T19:28:27.645Z,98461.25
2018-04-20T19:29:31.234Z,98464.95
2018-04-20T19:30:35.670Z,98466.70
2018-04-20T19:31:40.220Z,98459.88
2018-04-20T19:32:43.583Z,98459.75
2018-04-20T19:33:48.367Z,98462.78
2018-04-20T19:34:54.218Z,98464.03
2018-04-20T19:35:58.966Z,98465.72
2018-04-20T19:37:02.865Z,98466.48
2018-04-20T19:38:09.617Z,98462.29
2018-04-20T19:39:15.124Z,98462.67
2018-04-20T19:40:20.239Z,98468.64
2018-04-20T19:41:25.688Z,98462.77
2018-04-20T19:42:30.779Z,98468.25
2018-04-20T19:43:35.719Z,98463.80
2018-04-20T19:44:42.008Z,98466.09
2018-04-20T19:45:46.617Z,98466.06
2018-04-20T19:46:55.307Z,98465.69
2018-04-20T19:47:59.880Z,98465.63
2018-04-20T19:49:05.801Z,98475.13
2018-04-20T19:50:11.971Z,98474.33
2018-04-20T19:51:17.612Z,98469.08
2018-04-20T19:52:23.565Z,98473.61
2018-04-20T19:53:29.766Z,98469.67
2018-04-20T19:54:35.621Z,98473.94
2018-04-20T19:55:41.486Z,98474.41
2018-04-20T19:56:45.897Z,98468.77
2018-04-20T19:57:50.976Z,98470.02
2018-04-20T19:58:55.993Z,98473.69
2018-04-20T20:00:00.442Z,98471.67
2018-04-20T20:01:04.417Z,98474.44
2018-04-20T20:02:10.599Z,98475.77
2018-04-20T20:03:15.688Z,98477.26
2018-04-20T20:04:20.656Z,98480.32
2018-04-20T20:05:25.787Z,98473.09
2018-04-20T20:06:31.574Z,98473.36
2018-04-20T20:07:36.804Z,98478.04
2018-04-20T20:08:42.151Z,98475.62
2018-04-20T20:09:47.245Z,98476.74
2018-04-20T20:10:55.591Z,98476.59
2018-04-20T20:12:00.952Z,98479.96
2018-04-20T20:13:08.940Z,98474.22
2018-04-20T20:14:14.932Z,98477.37
2018-04-20T20:15:22.034Z,98480.56
2018-04-20T20:16:27.068Z,98473.00
2018-04-20T20:17:32.394Z,98480.16
2018-04-20T20:18:37.709Z,98474.45
2018-04-20T20:19:44.529Z,98474.59
2018-04-20T20:20:49.784Z,98471.91
2018-04-20T20:21:55.921Z,98470.47
2018-04-20T20:23:01.026Z,98473.50
2018-04-20T20:24:05.929Z,98468.20
2018-04-20T20:25:11.816Z,98471.95
2018-04-20T20:26:17.453Z,98467.60
2018-04-20T20:27:22.545Z,98466.73
2018-04-20T20:28:27.949Z,98467.49
2018-04-20T20:29:33.212Z,98466.42
2018-04-20T20:30:39.485Z,98470.55
2018-04-20T20:31:44.365Z,98469.27
2018-04-20T20:32:49.989Z,98470.11
2018-04-20T20:33:54.905Z,98468.86
2018-04-20T20:34:59.443Z,98463.85
2018-04-20T20:36:03.503Z,98468.27
2018-04-20T20:37:08.881Z,98460.81
2018-04-20T20:38:14.835Z,98465.10
2018-04-20T20:39:21.144Z,98469.02
2018-04-20T20:40:27.863Z,98464.08
2018-04-20T20:41:36.060Z,98466.34
2018-04-20T20:42:41.992Z,98463.66
2018-04-20T20:43:47.625Z,98465.05
2018-04-20T20:44:53.834Z,98468.53
2018-04-20T20:45:58.192Z,98462.28
2018-04-20T20:47:03.066Z,98466.59
2018-04-20T20:48:07.427Z,98464.36
2018-04-20T20:49:11.881Z,98463.94
2018-04-20T20:50:15.684Z,98465.64
2018-04-20T20:51:20.305Z,98467.56
2018-04-20T20:52:25.080Z,98467.66
2018-04-20T20:53:28.530Z,98466.58
2018-04-20T20:54:32.854Z,98463.63
2018-04-20T20:55:36.065Z,98464.45
2018-04-20T20:56:41.305Z,98465.59
2018-04-20T20:57:45.133Z,98463.02
2018-04-20T20:58:50.138Z,98469.41
2018-04-20T20:59:54.114Z,98464.27
2018-04-20T21:00:57.089Z,98465.58
2018-04-20T21:02:00.440Z,98462.94
2018-04-20T21:03:04.003Z,98472.22
2018-04-20T21:04:08.359Z,98465.80
2018-04-20T21:05:13.237Z,98465.27
2018-04-20T21:06:17.030Z,98463.91
2018-04-20T21:07:20.749Z,98469.41
2018-04-20T21:08:23.909Z,98464.58
2018-04-20T21:09:28.039Z,98470.09
2018-04-20T21:10:36.890Z,98469.11
2018-04-20T21:11:41.176Z,98464.88
2018-04-20T21:12:44.475Z,98461.97
2018-04-20T21:13:47.571Z,98470.07
2018-04-20T21:14:52.095Z,98462.88
2018-04-20T21:15:56.422Z,98464.94
2018-04-20T21:17:00.236Z,98459.66
2018-04-20T21:18:03.046Z,98462.20
2018-04-20T21:19:06.420Z,98465.08
2018-04-20T21:20:09.548Z,98465.03
2018-04-20T21:21:12.704Z,98465.41
2018-04-20T21:22:16.452Z,98461.83
2018-04-20T21:23:19.757Z,98465.95
2018-04-20T21:24:22.736Z,98463.94
2018-04-20T21:25:25.579Z,98460.78
2018-04-20T21:26:29.430Z,98465.36
2018-04-20T21:27:32.540Z,98462.66
2018-04-20T21:28:35.359Z,98464.88
2018-04-20T21:29:40.327Z,98467.14
2018-04-20T21:30:43.692Z,98469.13
2018-04-20T21:31:46.605Z,98462.81
2018-04-20T21:32:49.547Z,98453.77
2018-04-20T21:33:53.754Z,98462.50
2018-04-20T21:34:56.573Z,98459.73
2018-04-20T21:36:00.673Z,98462.31
2018-04-20T21:37:03.926Z,98451.73
2018-04-20T21:38:06.780Z,98459.95
2018-04-20T21:39:09.689Z,98456.66
2018-04-20T21:40:12.638Z,98450.16
2018-04-20T21:41:15.929Z,98453.27
2018-04-20T21:42:19.637Z,98451.80
2018-04-20T21:43:22.637Z,98449.00
2018-04-20T21:44:25.488Z,98448.85
2018-04-20T21:45:28.665Z,98449.28
2018-04-20T21:46:31.548Z,98448.02
2018-04-20T21:47:34.492Z,98449.39
2018-04-20T21:48:37.590Z,98443.30
2018-04-20T21:49:40.489Z,98450.09
2018-04-20T21:50:43.270Z,98444.82
2018-04-20T21:51:46.084Z,98445.39
2018-04-20T21:52:49.931Z,98445.92
2018-04-20T21:53:53.375Z,98447.02
2018-04-20T21:54:56.452Z,98447.31
2018-04-20T21:55:59.243Z,98444.16
2018-04-20T21:57:02.853Z,98449.89
2018-04-20T21:58:05.760Z,98449.31
2018-04-20T21:59:08.719Z,98450.99
2018-04-20T22:00:12.601Z,98455.80
2018-04-20T22:01:15.693Z,98455.08
2018-04-20T22:02:18.533Z,98457.69
2018-04-20T22:03:21.469Z,98464.64
2018-04-20T22:04:24.759Z,98464.73
2018-04-20T22:05:27.567Z,98466.98
2018-04-20T22:06:30.329Z,98466.31
2018-04-20T22:07:33.601Z,98466.41
2018-04-20T22:08:39.614Z,98470.03
2018-04-20T22:09:44.331Z,98474.11
2018-04-20T22:10:47.640Z,98470.66
2018-04-20T22:11:50.477Z,98466.88
2018-04-20T22:12:53.574Z,98463.77
2018-04-20T22:13:58.037Z,98468.05
2018-04-20T22:15:03.806Z,98468.03
2018-04-20T22:16:06.631Z,98464.91
2018-04-20T22:17:09.422Z,98465.64
2018-04-20T22:18:12.205Z,98465.36
2018-04-20T22:19:15.966Z,98461.20
2018-04-20T22:20:19.268Z,98460.70
2018-04-20T22:21:22.728Z,98459.65
2018-04-20T22:22:25.542Z,98456.50
2018-04-20T22:23:28.316Z,98459.59
2018-04-20T22:24:33.059Z,98466.03
2018-04-20T22:25:37.214Z,98464.72
2018-04-20T22:26:40.010Z,98463.95
2018-04-20T22:27:42.788Z,98463.48
2018-04-20T22:28:45.776Z,98464.30
2018-04-20T22:29:48.690Z,98462.71
2018-04-20T22:30:51.492Z,98459.28
2018-04-20T22:31:54.608Z,98460.55
2018-04-20T22:32:58.447Z,98458.72
2018-04-20T22:34:01.897Z,98464.06
2018-04-20T22:35:04.581Z,98457.97
2018-04-20T22:36:07.414Z,98459.55
2018-04-20T22:37:10.201Z,98457.51
2018-04-20T22:38:16.205Z,98454.41
2018-04-20T22:39:20.666Z,98461.87
2018-04-20T22:40:24.962Z,98463.53
2018-04-20T22:41:27.719Z,98457.07
2018-04-20T22:42:30.520Z,98462.34
2018-04-20T22:43:33.612Z,98460.76
2018-04-20T22:44:37.328Z,98460.26
2018-04-20T22:45:40.068Z,98463.66
2018-04-20T22:46:42.788Z,98464.42
2018-04-20T22:47:45.504Z,98465.69
2018-04-20T22:48:48.444Z,98467.27
2018-04-20T22:49:52.774Z,98465.02
2018-04-20T22:50:55.811Z,98466.64
2018-04-20T22:51:58.594Z,98464.23
2018-04-20T22:53:01.360Z,98465.17
2018-04-20T22:54:04.056Z,98462.05
2018-04-20T22:55:06.721Z,98469.09
2018-04-20T22:56:09.419Z,98470.19
2018-04-20T22:57:12.477Z,98466.23
2018-04-20T22:58:15.302Z,98471.17
2018-04-20T22:59:18.057Z,98473.73
2018-04-20T23:00:20.836Z,98469.81
2018-04-20T23:01:23.690Z,98469.67
2018-04-20T23:02:26.508Z,98465.59
2018-04-20T23:03:29.606Z,98467.41
2018-04-20T23:04:33.303Z,98462.41
2018-04-20T23:05:36.090Z,98465.65
2018-04-20T23:06:38.897Z,98470.52
2018-04-20T23:07:41.731Z,98475.40
2018-04-20T23:08:44.546Z,98470.14
2018-04-20T23:09:47.327Z,98466.56
2018-04-20T23:10:50.138Z,98470.35
2018-04-20T23:11:52.910Z,98468.64
2018-04-20T23:12:56.203Z,98469.20
2018-04-20T23:13:58.978Z,98476.56
2018-04-20T23:15:02.050Z,98471.77
2018-04-20T23:16:04.867Z,98471.54
2018-04-20T23:17:07.647Z,98463.42
2018-04-20T23:18:10.419Z,98467.06
2018-04-20T23:19:13.230Z,98461.66
2018-04-20T23:20:16.021Z,98462.36
2018-04-20T23:21:19.071Z,98461.06
2018-04-20T23:22:21.867Z,98456.30
2018-04-20T23:23:24.835Z,98458.27
2018-04-20T23:24:28.299Z,98459.92
2018-04-20T23:25:31.718Z,98455.11
2018-04-20T23:26:34.745Z,98457.21
2018-04-20T23:27:38.634Z,98465.84
2018-04-20T23:28:41.692Z,98459.19
2018-04-20T23:29:44.537Z,98461.11
2018-04-20T23:30:47.332Z,98458.73
2018-04-20T23:31:51.907Z,98458.72
2018-04-20T23:32:54.666Z,98458.83
2018-04-20T23:33:57.768Z,98455.55
2018-04-20T23:35:01.555Z,98451.59
2018-04-20T23:36:05.162Z,98454.53
2018-04-20T23:37:08.706Z,98458.69
2018-04-20T23:38:11.903Z,98457.70
2018-04-20T23:39:14.916Z,98457.62
2018-04-20T23:40:18.140Z,98463.31
2018-04-20T23:41:20.845Z,98458.55
2018-04-20T23:42:23.678Z,98460.11
2018-04-20T23:43:26.594Z,98451.58
2018-04-20T23:44:29.318Z,98457.97
2018-04-20T23:45:33.108Z,98457.95
2018-04-20T23:46:36.364Z,98459.43
2018-04-20T23:47:39.076Z,98460.70
2018-04-20T23:48:41.860Z,98460.94
2018-04-20T23:49:44.639Z,98457.47
2018-04-20T23:50:47.409Z,98458.12
2018-04-20T23:51:50.227Z,98456.41
2018-04-20T23:52:53.402Z,98455.27
2018-04-20T23:53:56.363Z,98458.80
2018-04-20T23:54:59.140Z,98456.19
2018-04-20T23:56:03.095Z,98456.41
2018-04-20T23:57:05.913Z,98459.50
2018-04-20T23:58:08.661Z,98459.57
2018-04-20T23:59:12.070Z,98457.03
